Date,TemperatureHighF,TemperatureAvgF,TemperatureLowF,DewpointHighF,DewpointAvgF,DewpointLowF,HumidityHigh,HumidityAvg,HumidityLow,PressureMaxIn,PressureMinIn,WindSpeedMaxMPH,WindSpeedAvgMPH,GustSpeedMaxMPH,PrecipitationSumIn
2013-9-1,75.0,72.0,70.0,72.2,69.8,68.1,95,93,90,29.90,29.84,7,0,7,0.10
2013-9-2,80.7,73.8,70.6,75.8,71.1,68.8,94,91,83,29.88,29.73,6,0,6,0.16
2013-9-3,76.8,70.3,66.0,73.0,68.2,64.1,95,93,86,29.81,29.70,8,0,8,2.13
2013-9-4,77.2,67.9,60.6,68.1,63.2,58.9,95,85,67,29.93,29.80,9,1,9,0.00
2013-9-5,71.0,65.0,53.2,66.9,61.1,50.8,93,87,76,30.11,29.88,7,0,7,0.01
2013-9-6,70.2,58.8,49.6,56.7,51.4,47.4,94,78,50,30.22,30.11,5,0,5,0.00
2013-9-7,72.5,66.0,60.0,60.9,56.9,51.7,79,73,59,30.11,29.89,13,2,13,0.00
2013-9-8,78.4,68.0,56.9,68.3,59.5,46.2,90,75,47,30.08,29.75,8,1,8,0.00
2013-9-9,68.0,58.8,47.5,55.8,50.3,44.4,91,75,51,30.24,30.07,8,0,8,0.00
2013-9-10,72.9,66.7,59.4,66.3,61.9,55.1,90,85,77,30.19,30.07,9,1,9,0.00
2013-9-11,79.3,72.0,68.2,72.5,68.5,65.6,93,89,79,30.11,30.00,8,1,8,0.00
2013-9-12,78.3,72.5,68.9,72.4,69.1,66.8,93,89,82,30.02,29.70,15,1,15,0.00
2013-9-13,74.7,70.2,63.8,70.4,66.9,59.8,94,89,80,29.73,29.57,7,0,7,0.03
2013-9-14,70.7,64.1,58.1,61.1,57.7,53.3,87,80,66,30.05,29.73,5,0,5,0.00
2013-9-15,69.5,60.3,50.9,58.5,54.0,48.7,94,80,65,30.17,30.05,8,0,8,0.00
2013-9-16,64.5,61.6,54.0,60.5,56.6,45.5,92,84,70,30.19,30.02,10,0,10,0.03
2013-9-17,60.9,53.1,44.0,46.8,44.0,41.4,91,72,55,30.39,30.19,13,1,13,0.00
2013-9-18,71.1,56.2,42.7,56.3,48.1,40.5,95,77,46,30.33,30.16,8,0,8,0.00
2013-9-19,72.8,63.6,57.2,60.7,57.1,53.4,88,80,58,30.16,30.06,9,0,9,0.00
2013-9-20,75.2,64.1,55.1,64.7,59.0,52.5,94,84,63,30.10,30.02,5,0,5,0.00
2013-9-21,77.5,67.1,57.5,67.1,62.1,55.5,95,85,63,30.05,29.77,16,1,16,0.00
2013-9-22,71.7,66.5,57.1,67.8,61.9,50.6,94,85,74,29.81,29.66,11,1,11,0.28
2013-9-23,63.2,55.5,49.7,51.5,47.4,43.8,89,75,57,29.99,29.80,10,1,10,0.00
2013-9-24,63.2,54.2,48.1,52.3,46.6,42.8,90,76,59,29.99,29.82,8,0,8,0.00
2013-9-25,67.0,55.1,45.9,54.1,48.9,43.6,93,80,60,29.97,29.88,7,0,7,0.00
2013-9-26,62.3,56.2,50.1,53.1,50.7,47.4,92,83,68,30.10,29.97,11,0,11,0.00
2013-9-27,64.1,57.6,48.3,56.9,52.9,46.0,94,85,73,30.25,30.10,10,0,10,0.00
2013-9-28,72.5,57.6,46.4,60.6,52.4,44.5,96,84,59,30.30,30.24,3,0,7,0.00
2013-9-29,69.5,56.2,45.4,57.3,51.4,43.5,95,85,60,30.25,30.09,6,0,6,0.00
2013-9-30,68.1,58.8,49.7,59.1,54.4,47.5,94,86,70,30.09,29.96,8,0,8,0.00